CLT weather

Charlotte Douglas International Airport
Charlotte, North Carolina, United States

Public forecast

Using degrees Fahrenheit for public forecast. Weather courtesy of forecast.io.

METAR (pilot weather report)

Retrieved 2018/08/20 02:52 UTC (46 minutes ago):

KCLT 200252Z 21006KT 10SM FEW047 SCT100 BKN140 BKN250 26/23 A2999 RMK AO2 SLP146 T02560233 50009 $

TAF (pilot weather forecast)

Forecast is more than 12 hours old.

Retrieved 2018/08/19 00:42 UTC (1 day ago):

TAF KCLT 192339Z 2000/2106 22005KT P6SM VCSH SCT035 BKN250 TEMPO 2000/2002 4SM -TSRA BKN040CB BKN050 FM201000 21004KT 5SM BR SCT007 BKN012 FM201500 24004KT P6SM SCT025 FM201600 24007KT P6SM BKN035 PROB30 2021/2103 4SM -TSRA OVC025CB FM210400 19005KT P6SM SCT090 BKN250